Time;durP1;ratioP1;P1;durP2;ratioP2;P2;SDS_P1;SDS_P2;PMS_P1;PMS_P2;Temp;Humidity;BMP_temperature;BMP_pressure;BME280_temperature;BME280_humidity;BME280_pressure;Samples;Min_cycle;Max_cycle;Signal;HPM_P1;HPM_P2
2023/04/02 00:00:18;;;;;;;4.10;3.20;;;5.80;99.90;;;-141.84;84.14;19161.50;5070254;28;20236;-64
2023/04/02 00:02:56;;;;;;;3.83;3.40;;;5.80;99.90;;;-141.84;83.64;19177.75;5070430;28;20956;-64
2023/04/02 00:05:50;;;;;;;3.60;3.30;;;5.90;99.90;;;-141.84;83.21;19163.53;5070247;28;20223;-65
2023/04/02 00:08:25;;;;;;;3.80;3.33;;;5.70;99.90;;;-141.84;83.70;19183.84;5070239;28;20187;-64
2023/04/02 00:10:56;;;;;;;4.87;3.33;;;5.80;99.90;;;-141.84;83.93;19175.72;5070316;28;20655;-64
2023/04/02 00:13:32;;;;;;;4.27;3.77;;;5.70;99.90;;;-141.84;84.42;19147.28;5070125;28;20224;-65
2023/04/02 00:16:03;;;;;;;4.10;3.70;;;5.70;99.90;;;-141.84;85.02;19167.59;5069923;28;20622;-64
2023/04/02 00:18:36;;;;;;;4.40;4.00;;;5.70;99.90;;;-141.84;84.30;19171.66;5069662;28;20316;-64
2023/04/02 00:21:16;;;;;;;4.40;4.00;;;5.70;99.90;;;-141.84;84.37;19192.00;5069877;28;20252;-64
2023/04/02 00:23:45;;;;;;;4.23;3.83;;;5.80;99.90;;;-141.84;84.31;19165.56;5069597;28;20238;-64
2023/04/02 00:26:29;;;;;;;4.70;3.80;;;5.80;99.90;;;-141.84;83.92;19179.78;5069982;28;20196;-64
2023/04/02 00:28:59;;;;;;;4.53;4.03;;;5.80;99.90;;;-141.84;83.09;19194.03;5070216;28;20198;-64
2023/04/02 00:31:27;;;;;;;4.13;3.73;;;5.70;99.90;;;-141.84;82.96;19153.38;5069834;28;20590;-64
2023/04/02 00:33:57;;;;;;;4.73;3.73;;;5.70;99.90;;;-141.84;83.31;19163.53;5069595;28;20231;-65
2023/04/02 00:36:33;;;;;;;3.87;3.47;;;5.70;99.90;;;-141.84;83.66;19167.59;5069610;28;20308;-64
2023/04/02 00:39:10;;;;;;;4.03;3.57;;;5.70;99.90;;;-141.84;83.61;19177.75;5069624;28;20277;-64
2023/04/02 00:41:45;;;;;;;3.60;3.27;;;5.70;99.90;;;-141.84;82.85;19220.44;5070129;28;20230;-63
2023/04/02 00:44:20;;;;;;;4.53;3.37;;;5.80;99.90;;;-141.84;82.52;19228.56;5069505;28;20241;-64
2023/04/02 00:46:50;;;;;;;3.40;3.10;;;5.80;99.90;;;-141.84;82.65;19192.00;5070277;28;20176;-64
2023/04/02 00:49:29;;;;;;;3.63;3.23;;;5.80;99.90;;;-141.84;82.05;19185.88;5069520;28;20232;-64
2023/04/02 00:52:04;;;;;;;3.83;3.53;;;5.80;99.90;;;-141.84;82.56;19175.72;5067042;28;20223;-66
2023/04/02 00:54:42;;;;;;;4.43;3.00;;;5.70;99.90;;;-141.84;81.94;19196.06;5069548;28;20227;-63
2023/04/02 00:57:20;;;;;;;3.90;3.50;;;5.80;99.90;;;-141.84;82.43;19163.53;5049529;28;20232;-65
2023/04/02 00:59:56;;;;;;;3.43;3.13;;;5.70;99.90;;;-141.84;82.74;19173.69;5049882;28;20225;-66
2023/04/02 01:02:29;;;;;;;3.97;3.57;;;5.60;99.90;;;-141.84;82.83;19187.91;5049723;28;20297;-64
2023/04/02 01:05:02;;;;;;;4.27;3.70;;;5.50;99.90;;;-141.84;83.34;19169.63;5049822;28;20192;-65
2023/04/02 01:07:56;;;;;;;3.83;3.30;;;5.50;99.90;;;-141.84;83.29;19175.72;5049621;28;20236;-65
2023/04/02 01:10:58;;;;;;;3.87;3.23;;;5.50;99.90;;;-141.84;83.41;19181.81;5052711;28;20695;-65
2023/04/02 01:13:37;;;;;;;4.40;4.00;;;5.60;99.90;;;-141.84;83.92;19181.81;5053319;28;20224;-65
2023/04/02 01:16:17;;;;;;;4.50;4.00;;;5.50;99.90;;;-141.84;83.30;19147.28;5053176;28;20727;-65
2023/04/02 01:18:57;;;;;;;4.70;4.30;;;5.40;99.90;;;-141.84;83.57;19192.00;5055362;28;20236;-65
2023/04/02 01:21:41;;;;;;;8.20;4.57;;;5.40;99.90;;;-141.84;83.62;19153.38;5072827;28;20743;-64
2023/04/02 01:24:13;;;;;;;5.87;5.00;;;5.40;99.90;;;-141.84;84.23;19153.38;5073022;28;20651;-66
2023/04/02 01:26:55;;;;;;;5.33;4.77;;;5.20;99.90;;;-141.84;84.14;19159.47;5073269;28;20222;-64
2023/04/02 01:29:29;;;;;;;6.47;5.03;;;5.30;99.90;;;-141.84;83.92;19147.28;5073404;28;20238;-65
2023/04/02 01:32:02;;;;;;;5.30;4.80;;;5.10;99.90;;;-141.84;83.71;19139.16;5073738;28;20199;-65
2023/04/02 01:34:32;;;;;;;5.77;4.60;;;5.10;99.90;;;-141.84;83.80;19133.06;5073468;28;20586;-64
2023/04/02 01:37:21;;;;;;;5.53;4.60;;;5.00;99.90;;;-141.84;84.36;19129.00;5072825;28;20230;-65
2023/04/02 01:40:13;;;;;;;5.30;4.80;;;5.00;99.90;;;-141.84;84.13;19118.84;5072641;28;20226;-64
2023/04/02 01:42:54;;;;;;;5.53;4.53;;;5.00;99.90;;;-141.84;84.63;19120.88;5072871;28;20777;-63
2023/04/02 01:45:24;;;;;;;6.60;4.70;;;5.00;99.90;;;-141.84;83.96;19143.22;5072685;28;20727;-64
2023/04/02 01:47:52;;;;;;;6.57;5.33;;;5.00;99.90;;;-141.84;83.88;19120.88;5072712;28;20734;-64
2023/04/02 01:50:30;;;;;;;5.43;4.93;;;4.90;99.90;;;-141.84;83.34;19112.75;5070240;28;20204;-65
2023/04/02 01:53:04;;;;;;;6.80;4.80;;;4.90;99.90;;;-141.84;83.57;19124.94;5072926;28;20212;-64
2023/04/02 01:55:41;;;;;;;5.03;4.53;;;4.80;99.90;;;-141.84;83.44;19102.56;5073212;28;20597;-64
2023/04/02 01:58:12;;;;;;;6.33;5.20;;;4.80;99.90;;;-141.84;83.70;19122.91;5055182;28;20231;-65
2023/04/02 02:00:50;;;;;;;6.40;5.13;;;4.80;99.90;;;-141.84;83.11;19118.84;5060377;28;20306;-64
2023/04/02 02:03:20;;;;;;;6.47;4.90;;;4.80;99.90;;;-141.84;83.17;19122.91;5072420;28;20744;-64
2023/04/02 02:05:49;;;;;;;5.20;4.30;;;4.70;99.90;;;-141.84;83.14;19110.72;5072429;28;20714;-63
2023/04/02 02:08:38;;;;;;;6.33;4.97;;;4.80;99.90;;;-141.84;82.65;19139.16;5072476;28;20207;-65
2023/04/02 02:11:08;;;;;;;5.80;5.10;;;4.80;99.90;;;-141.84;82.82;19104.59;5072605;28;20199;-66
2023/04/02 02:13:36;;;;;;;6.87;4.73;;;4.80;99.90;;;-141.84;83.06;19122.91;5073059;28;20211;-65
2023/04/02 02:16:17;;;;;;;7.13;5.63;;;4.70;99.90;;;-141.84;82.61;19135.09;5072224;28;20261;-64
2023/04/02 02:18:50;;;;;;;7.03;4.93;;;4.80;99.90;;;-141.84;83.06;19110.72;5070042;28;20278;-65
2023/04/02 02:21:36;;;;;;;5.47;4.90;;;4.70;99.90;;;-141.84;83.85;19137.13;5056145;28;20225;-65
2023/04/02 02:24:07;;;;;;;7.27;5.63;;;4.80;99.90;;;-141.84;83.22;19131.03;5071673;28;20722;-64
2023/04/02 02:26:37;;;;;;;5.97;5.27;;;4.80;99.90;;;-141.84;83.14;19114.78;5076332;28;20223;-64
2023/04/02 02:29:15;;;;;;;6.07;4.97;;;4.70;99.90;;;-141.84;82.86;19141.19;5093313;28;20199;-64
2023/04/02 02:31:52;;;;;;;5.83;5.07;;;4.70;99.90;;;-141.84;82.84;19122.91;5076959;28;20646;-65
2023/04/02 02:34:29;;;;;;;6.07;4.93;;;4.70;99.90;;;-141.84;82.72;19106.66;5072081;28;20233;-66
2023/04/02 02:37:06;;;;;;;6.50;4.90;;;4.70;99.90;;;-141.84;82.90;19102.56;5071534;28;20594;-64
2023/04/02 02:39:41;;;;;;;6.37;4.87;;;4.70;99.90;;;-141.84;82.24;19120.88;5071674;28;20227;-64
2023/04/02 02:42:18;;;;;;;5.33;4.80;;;4.80;99.90;;;-141.84;82.07;19124.94;5071974;28;20232;-63
2023/04/02 02:44:50;;;;;;;6.83;5.20;;;4.70;99.90;;;-141.84;82.50;19108.69;5071978;28;20651;-65
2023/04/02 02:47:27;;;;;;;5.77;4.93;;;4.80;99.90;;;-141.84;82.55;19110.72;5071890;28;20210;-63
2023/04/02 02:50:00;;;;;;;6.30;4.47;;;4.70;99.90;;;-141.84;81.87;19149.31;5072470;28;20190;-64
2023/04/02 02:52:33;;;;;;;6.67;5.00;;;4.70;99.90;;;-141.84;82.35;19118.84;5070206;28;20229;-64
2023/04/02 02:55:05;;;;;;;5.07;4.50;;;4.70;99.90;;;-141.84;83.08;19131.03;5068896;28;20281;-65
2023/04/02 02:57:38;;;;;;;5.90;4.97;;;4.60;99.90;;;-141.84;83.41;19135.09;5040540;28;20763;-64
2023/04/02 03:00:11;;;;;;;6.27;5.10;;;4.60;99.90;;;-141.84;83.71;19106.66;5054643;28;20593;-64
2023/04/02 03:02:44;;;;;;;7.67;4.87;;;4.60;99.90;;;-141.84;84.57;19133.06;5071559;28;20591;-63
2023/04/02 03:05:19;;;;;;;7.70;5.30;;;4.50;99.90;;;-141.84;84.73;19090.38;5071345;28;20185;-65
2023/04/02 03:07:51;;;;;;;8.37;5.77;;;4.40;99.90;;;-141.84;84.43;19145.25;5071700;28;20661;-64
2023/04/02 03:10:32;;;;;;;8.43;5.57;;;4.40;99.90;;;-141.84;84.50;19139.16;5071238;28;20235;-64
2023/04/02 03:13:12;;;;;;;7.00;5.53;;;4.50;99.90;;;-141.84;83.82;19122.91;5071325;28;20227;-65
2023/04/02 03:15:53;;;;;;;9.10;5.80;;;4.50;99.90;;;-141.84;84.03;19098.50;5071291;28;20256;-66
2023/04/02 03:18:36;;;;;;;9.20;5.47;;;4.50;99.90;;;-141.84;84.39;19080.22;5070952;28;20250;-65
2023/04/02 03:21:17;;;;;;;10.37;5.83;;;4.40;99.90;;;-141.84;84.14;19084.28;5053829;28;20222;-64
2023/04/02 03:23:53;;;;;;;9.30;5.90;;;4.40;99.90;;;-141.84;84.10;19100.53;5082753;28;20228;-65
2023/04/02 03:26:30;;;;;;;8.37;6.03;;;4.40;99.90;;;-141.84;83.09;19076.16;5091110;28;20240;-64
2023/04/02 03:29:08;;;;;;;7.63;6.27;;;4.40;99.90;;;-141.84;83.10;19102.56;5091862;28;20553;-63
2023/04/02 03:31:41;;;;;;;7.23;6.13;;;4.30;99.90;;;-141.84;83.55;19080.22;5075955;28;20228;-63
2023/04/02 03:34:22;;;;;;;9.13;6.13;;;4.40;99.90;;;-141.84;83.72;19086.31;5070005;28;20305;-64
2023/04/02 03:36:59;;;;;;;9.43;6.53;;;4.40;99.90;;;-141.84;84.04;19116.81;5070621;28;20317;-63
2023/04/02 03:39:37;;;;;;;9.20;6.70;;;4.40;99.90;;;-141.84;83.42;19084.28;5070730;28;20238;-64
2023/04/02 03:42:14;;;;;;;9.00;6.23;;;4.40;99.90;;;-141.84;83.06;19063.97;5070611;28;20226;-65
2023/04/02 03:44:50;;;;;;;9.83;6.97;;;4.30;99.90;;;-141.84;82.90;19102.56;5070904;28;20233;-63
2023/04/02 03:47:29;;;;;;;9.30;6.43;;;4.30;99.90;;;-141.84;83.29;19072.09;5070725;28;20562;-64
2023/04/02 03:50:06;;;;;;;9.90;6.93;;;4.30;99.90;;;-141.84;83.48;19104.59;5070802;28;20210;-64
2023/04/02 03:52:37;;;;;;;8.43;6.30;;;4.30;99.90;;;-141.84;83.73;19059.91;5070193;28;20253;-64
2023/04/02 03:55:15;;;;;;;8.30;6.03;;;4.30;99.90;;;-141.84;83.46;19072.09;5070494;28;20215;-63
2023/04/02 03:57:55;;;;;;;8.60;6.17;;;4.30;99.90;;;-141.84;83.72;19098.50;5070325;28;20241;-64
2023/04/02 04:00:35;;;;;;;10.53;6.87;;;4.20;99.90;;;-141.84;83.43;19078.19;5070087;28;20229;-64
2023/04/02 04:03:11;;;;;;;7.97;6.20;;;4.10;99.90;;;-141.84;83.81;19108.69;5070427;28;20227;-64
2023/04/02 04:05:50;;;;;;;8.57;6.80;;;4.10;99.90;;;-141.84;83.61;19092.41;5070469;28;20303;-64
2023/04/02 04:08:25;;;;;;;9.83;6.70;;;4.00;99.90;;;-141.84;83.41;19080.22;5070258;28;20189;-64
2023/04/02 04:10:58;;;;;;;6.90;5.93;;;4.00;99.90;;;-141.84;83.00;19051.78;5070820;28;20678;-64
2023/04/02 04:13:36;;;;;;;9.03;6.63;;;4.00;99.90;;;-141.84;83.04;19074.13;5070520;28;20210;-63
2023/04/02 04:16:11;;;;;;;9.03;6.27;;;4.10;99.90;;;-141.84;83.07;19082.25;5070202;28;20238;-63
2023/04/02 04:18:47;;;;;;;8.10;6.20;;;4.20;99.90;;;-141.84;82.71;19096.47;5070654;28;20263;-65
2023/04/02 04:21:28;;;;;;;11.17;6.67;;;4.10;99.90;;;-141.84;82.79;19019.28;5085611;28;20232;-63
2023/04/02 04:24:03;;;;;;;9.50;6.43;;;3.90;99.90;;;-141.84;82.62;19023.34;5069589;28;20272;-64
2023/04/02 04:26:42;;;;;;;9.47;5.90;;;3.90;99.90;;;-141.84;82.03;19027.41;5070125;28;20224;-64
2023/04/02 04:29:31;;;;;;;10.20;5.80;;;3.90;99.90;;;-141.84;81.33;19066.00;5070115;28;20194;-65
2023/04/02 04:32:18;;;;;;;6.90;5.57;;;4.00;99.90;;;-141.84;81.09;19066.00;5070671;28;20199;-63
2023/04/02 04:34:52;;;;;;;6.30;5.53;;;4.00;99.90;;;-141.84;81.23;19082.25;5070103;28;20205;-64
2023/04/02 04:37:32;;;;;;;9.87;5.70;;;4.00;99.90;;;-141.84;81.32;19102.56;5070070;28;20263;-64
2023/04/02 04:40:11;;;;;;;7.17;5.27;;;4.10;99.90;;;-141.84;81.22;19110.72;5069775;28;20281;-64
2023/04/02 04:42:44;;;;;;;6.63;5.10;;;4.10;99.90;;;-141.84;81.27;19086.31;5069887;28;20331;-65
2023/04/02 04:45:35;;;;;;;10.00;5.57;;;4.20;99.90;;;-141.84;80.61;19108.69;5066312;28;20223;-65
2023/04/02 04:48:09;;;;;;;5.43;4.70;;;4.20;99.90;;;-141.84;79.79;19112.75;5049841;28;20285;-64
2023/04/02 04:50:49;;;;;;;5.07;4.23;;;4.20;99.90;;;-141.84;78.84;19057.88;5052935;28;20232;-61
2023/04/02 04:53:23;;;;;;;5.27;4.43;;;4.10;99.90;;;-141.84;79.72;19068.03;5049322;28;20670;-55
2023/04/02 04:55:55;;;;;;;4.50;4.10;;;4.00;99.90;;;-141.84;80.34;19094.44;5060448;28;20188;-52
2023/04/02 04:58:40;;;;;;;7.63;4.30;;;3.90;99.90;;;-141.84;80.26;19086.31;5069702;28;20228;-56
2023/04/02 05:01:18;;;;;;;7.23;4.70;;;3.90;99.90;;;-141.84;80.19;19021.31;5069565;28;20572;-53
2023/04/02 05:03:55;;;;;;;9.27;4.53;;;3.90;99.90;;;-141.84;80.62;19076.16;5069363;28;20592;-54
2023/04/02 05:06:37;;;;;;;6.40;4.43;;;3.90;99.90;;;-141.84;80.05;19116.81;5069305;28;20243;-53
2023/04/02 05:09:18;;;;;;;6.03;4.60;;;3.90;99.90;;;-141.84;79.49;19059.91;5069318;28;20235;-55
2023/04/02 05:11:59;;;;;;;7.13;4.70;;;4.00;99.90;;;-141.84;79.98;19076.16;5069371;28;20224;-53
2023/04/02 05:14:37;;;;;;;6.17;4.53;;;3.90;99.90;;;-141.84;80.69;19066.00;5069406;28;20226;-55
2023/04/02 05:17:15;;;;;;;5.17;4.47;;;3.90;99.90;;;-141.84;80.76;19112.75;5088624;28;20197;-55
2023/04/02 05:19:51;;;;;;;6.53;4.43;;;3.80;99.90;;;-141.84;80.79;19090.38;5079826;28;20565;-54
2023/04/02 05:22:33;;;;;;;5.87;4.33;;;3.90;99.90;;;-141.84;80.14;19090.38;5069344;28;20731;-54
2023/04/02 05:25:19;;;;;;;5.87;4.10;;;3.80;99.90;;;-141.84;79.06;19057.88;5068834;28;20627;-54
2023/04/02 05:27:53;;;;;;;7.13;4.27;;;4.00;99.90;;;-141.84;79.28;19076.16;5069819;28;20609;-51
2023/04/02 05:30:41;;;;;;;4.97;4.23;;;3.90;99.90;;;-141.84;79.19;19088.34;5069319;28;20214;-55
2023/04/02 05:33:22;;;;;;;4.93;4.03;;;3.90;99.90;;;-141.84;78.54;19041.63;5069458;28;20229;-50
2023/04/02 05:36:00;;;;;;;5.03;3.80;;;3.90;99.90;;;-141.84;77.95;19112.75;5069182;28;20224;-53
2023/04/02 05:38:33;;;;;;;5.10;4.10;;;3.90;99.90;;;-141.84;77.30;19104.59;5069152;28;20229;-50
2023/04/02 05:41:07;;;;;;;5.17;4.00;;;3.80;99.90;;;-141.84;78.43;19108.69;5069858;28;20199;-49
2023/04/02 05:43:45;;;;;;;4.00;3.60;;;3.80;99.90;;;-141.84;77.98;19090.38;5049505;28;20214;-55
2023/04/02 05:46:20;;;;;;;4.30;3.90;;;3.80;99.90;;;-141.84;78.01;19102.56;5049019;28;20234;-53
2023/04/02 05:48:55;;;;;;;4.90;3.80;;;3.80;99.90;;;-141.84;78.31;19078.19;5049071;28;20233;-50
2023/04/02 05:51:35;;;;;;;5.27;3.87;;;3.90;99.90;;;-141.84;77.64;19108.69;5057099;28;20217;-52
2023/04/02 05:54:15;;;;;;;6.77;3.60;;;3.90;99.90;;;-141.84;76.70;19102.56;5069175;28;20224;-54
2023/04/02 05:56:52;;;;;;;3.57;3.20;;;4.00;99.90;;;-141.84;76.24;19122.91;5070907;28;20221;-52
2023/04/02 05:59:27;;;;;;;4.07;3.20;;;4.10;99.90;;;-141.84;76.51;19076.16;5072615;28;20268;-53
2023/04/02 06:02:02;;;;;;;3.90;3.10;;;4.00;99.90;;;-141.84;76.69;19143.22;5073278;28;20206;-50
2023/04/02 06:04:42;;;;;;;3.87;3.33;;;4.00;99.90;;;-141.84;75.77;19141.19;5072418;28;20220;-50
2023/04/02 06:07:18;;;;;;;4.43;3.43;;;4.00;99.90;;;-141.84;74.59;19124.94;5072542;28;20230;-50
2023/04/02 06:09:54;;;;;;;5.47;3.00;;;4.10;99.90;;;-141.84;75.36;19118.84;5072481;28;20605;-51
2023/04/02 06:12:36;;;;;;;4.33;3.70;;;4.00;99.90;;;-141.84;74.91;19104.59;5082733;28;20223;-50
2023/04/02 06:15:06;;;;;;;3.43;3.10;;;4.00;99.90;;;-141.84;75.17;19106.66;5092361;28;20226;-53
2023/04/02 06:17:47;;;;;;;3.27;2.97;;;4.00;99.90;;;-141.84;75.17;19110.72;5092679;28;20219;-51
2023/04/02 06:20:20;;;;;;;3.33;2.70;;;4.00;99.90;;;-141.84;74.98;19110.72;5076996;28;20290;-53
2023/04/02 06:22:53;;;;;;;2.83;2.53;;;4.00;99.90;;;-141.84;74.86;19110.72;5072151;28;20697;-52
2023/04/02 06:25:28;;;;;;;3.73;2.90;;;4.10;99.90;;;-141.84;74.56;19131.03;5072817;28;20224;-53
2023/04/02 06:28:01;;;;;;;2.77;2.40;;;4.20;99.90;;;-141.84;73.99;19151.34;5073152;28;20224;-52
2023/04/02 06:30:35;;;;;;;2.80;2.50;;;4.20;99.90;;;-141.84;73.50;19153.38;5072779;28;20219;-52
2023/04/02 06:33:03;;;;;;;3.60;2.43;;;4.30;99.90;;;-141.84;72.35;19151.34;5072808;28;20222;-52
2023/04/02 06:35:35;;;;;;;2.93;2.60;;;4.30;99.90;;;-141.84;72.59;19137.13;5072408;28;20274;-54
2023/04/02 06:38:14;;;;;;;3.00;2.50;;;4.20;99.90;;;-141.84;72.08;19139.16;5066494;28;20212;-54
2023/04/02 06:40:50;;;;;;;3.53;2.70;;;4.20;99.90;;;-141.84;72.36;19131.03;5053445;28;20220;-55
2023/04/02 06:43:32;;;;;;;3.83;2.53;;;4.10;99.90;;;-141.84;71.40;19139.16;5052821;28;20237;-52
2023/04/02 06:46:08;;;;;;;2.07;1.87;;;4.30;99.90;;;-141.84;71.11;19137.13;5052502;28;20223;-55
2023/04/02 06:48:41;;;;;;;2.57;2.33;;;4.20;99.90;;;-141.84;71.39;19175.72;5052829;28;20258;-50
2023/04/02 06:51:15;;;;;;;2.83;2.30;;;4.20;99.90;;;-141.84;71.10;19147.28;5059750;28;20242;-54
2023/04/02 06:53:47;;;;;;;2.80;2.47;;;4.20;99.90;;;-141.84;70.38;19155.41;5072829;28;20224;-51
2023/04/02 06:56:30;;;;;;;3.37;2.30;;;4.30;99.90;;;-141.84;70.54;19179.78;5072604;28;20188;-54
2023/04/02 06:59:03;;;;;;;4.13;2.73;;;4.20;99.90;;;-141.84;71.42;19159.47;5073069;28;20544;-55
2023/04/02 07:01:37;;;;;;;3.57;2.70;;;4.20;99.90;;;-141.84;71.46;19147.28;5067355;28;20218;-53
2023/04/02 07:04:06;;;;;;;3.60;2.80;;;4.20;99.90;;;-141.84;71.13;19118.84;5072477;28;20250;-53
2023/04/02 07:06:34;;;;;;;3.50;2.80;;;4.20;99.90;;;-141.84;70.83;19169.63;5071664;28;20681;-54
2023/04/02 07:09:03;;;;;;;2.93;2.27;;;4.30;99.90;;;-141.84;70.17;19149.31;5086904;28;20562;-55
2023/04/02 07:11:31;;;;;;;2.57;2.03;;;4.20;99.90;;;-141.84;68.75;19145.25;5092209;28;20747;-53
2023/04/02 07:14:01;;;;;;;3.17;2.33;;;4.30;99.90;;;-141.84;68.80;19153.38;5093389;28;20203;-63
2023/04/02 07:16:32;;;;;;;2.30;2.10;;;4.20;99.90;;;-141.84;68.33;19159.47;5092005;28;20231;-65
2023/04/02 07:19:02;;;;;;;2.30;2.10;;;4.30;99.90;;;-141.84;68.66;19185.88;5071775;28;20254;-64
2023/04/02 07:21:31;;;;;;;2.50;2.00;;;4.20;99.90;;;-141.84;68.96;19216.38;5071541;28;20818;-66
2023/04/02 07:23:59;;;;;;;3.00;2.70;;;4.40;99.90;;;-141.84;68.48;19212.31;5071749;28;20244;-65
2023/04/02 07:26:28;;;;;;;2.70;2.50;;;4.60;99.90;;;-141.84;68.37;19230.59;5071723;28;20575;-65
2023/04/02 07:28:56;;;;;;;2.20;2.00;;;4.60;99.90;;;-141.84;67.42;19177.75;5072310;28;20204;-66
2023/04/02 07:31:28;;;;;;;4.33;2.10;;;4.50;99.90;;;-141.84;67.89;19212.31;5071463;28;20224;-65
2023/04/02 07:33:59;;;;;;;2.40;2.20;;;4.50;99.90;;;-141.84;67.00;19196.06;5068635;28;20219;-65
2023/04/02 07:36:29;;;;;;;2.23;1.67;;;4.60;99.90;;;-141.84;65.42;19236.69;5051445;28;20273;-64
2023/04/02 07:38:58;;;;;;;2.37;1.67;;;4.60;99.90;;;-141.84;65.11;19200.13;5051640;28;20695;-67
2023/04/02 07:41:26;;;;;;;1.73;1.63;;;4.50;99.90;;;-141.84;65.77;19179.78;5051618;28;20231;-64
2023/04/02 07:43:54;;;;;;;1.63;1.53;;;4.50;99.90;;;-141.84;65.36;19234.66;5065773;28;20197;-65
2023/04/02 07:46:23;;;;;;;3.27;1.83;;;4.50;99.90;;;-141.84;65.54;19216.38;5071131;28;20224;-65
2023/04/02 07:48:53;;;;;;;3.23;1.70;;;4.40;99.90;;;-141.84;66.04;19216.38;5071448;28;20232;-66
2023/04/02 07:51:23;;;;;;;2.00;1.27;;;4.30;99.90;;;-141.84;65.98;19192.00;5070791;28;20227;-66
2023/04/02 07:53:54;;;;;;;1.90;1.70;;;4.30;99.90;;;-141.84;66.23;19153.38;5070848;28;20310;-65
2023/04/02 07:56:25;;;;;;;1.70;1.30;;;4.20;99.90;;;-141.84;66.47;19185.88;5070931;28;20284;-65
2023/04/02 07:58:53;;;;;;;1.93;1.40;;;4.20;99.90;;;-141.84;66.64;19181.81;5070546;28;20183;-63
2023/04/02 08:01:24;;;;;;;1.90;1.60;;;4.30;99.90;;;-141.84;65.31;19196.06;5070868;28;20230;-65
2023/04/02 08:03:56;;;;;;;1.60;1.50;;;4.40;99.90;;;-141.84;65.86;19194.03;5074011;28;20231;-65
2023/04/02 08:06:26;;;;;;;2.60;1.70;;;4.40;99.90;;;-141.84;65.65;19224.50;5090921;28;20227;-65
2023/04/02 08:08:54;;;;;;;1.83;1.60;;;4.50;99.90;;;-141.84;65.46;19240.75;5091245;28;20231;-64
2023/04/02 08:11:23;;;;;;;2.53;1.63;;;4.60;99.90;;;-141.84;65.98;19257.00;5091241;28;20227;-65
2023/04/02 08:13:51;;;;;;;2.23;1.50;;;4.50;99.90;;;-141.84;65.16;19192.00;5092070;28;20209;-65
2023/04/02 08:16:20;;;;;;;2.10;1.60;;;4.60;99.90;;;-141.84;64.49;19232.63;5091308;28;20227;-65
2023/04/02 08:18:48;;;;;;;2.87;1.40;;;4.70;99.90;;;-141.84;65.02;19200.13;5070291;28;20722;-67
2023/04/02 08:21:17;;;;;;;1.67;1.50;;;4.60;99.90;;;-141.84;65.38;19208.25;5070421;28;20254;-66
2023/04/02 08:23:46;;;;;;;2.97;1.50;;;4.60;99.90;;;-141.84;65.29;19171.66;5070860;28;20232;-64
2023/04/02 08:26:18;;;;;;;2.10;1.87;;;4.50;99.90;;;-141.84;65.44;19179.78;5070987;28;20198;-66
2023/04/02 08:28:46;;;;;;;3.07;1.70;;;4.50;99.90;;;-141.84;65.91;19175.72;5071575;28;20192;-65
2023/04/02 08:31:15;;;;;;;3.37;1.63;;;4.40;99.90;;;-141.84;65.66;19200.13;5058859;28;20221;-64
2023/04/02 08:33:44;;;;;;;2.30;1.90;;;4.40;99.90;;;-141.84;66.32;19177.75;5050602;28;20633;-65
2023/04/02 08:36:18;;;;;;;3.03;2.30;;;4.30;99.90;;;-141.84;66.15;19165.56;5050609;28;20323;-64
2023/04/02 08:38:47;;;;;;;2.37;1.50;;;4.40;99.90;;;-141.84;66.47;19189.97;5050733;28;20314;-63
2023/04/02 08:41:26;;;;;;;2.60;1.97;;;4.40;99.90;;;-141.84;66.77;19183.84;5050385;28;20776;-66
2023/04/02 08:44:31;;;;;;;2.17;1.80;;;4.40;99.90;;;-141.84;66.73;19196.06;5051237;28;20190;-65
2023/04/02 08:47:04;;;;;;;2.07;1.77;;;4.40;99.90;;;-141.84;66.38;19194.03;5050660;28;20236;-65
2023/04/02 08:49:40;;;;;;;2.07;1.50;;;4.40;99.90;;;-141.84;66.09;19210.28;5050937;28;20661;-65
2023/04/02 08:52:23;;;;;;;3.27;2.27;;;4.60;99.90;;;-141.84;66.44;19192.00;5059732;28;20273;-64
2023/04/02 08:54:52;;;;;;;3.80;2.60;;;4.50;99.90;;;-141.84;65.63;19242.78;5051122;28;20606;-63
2023/04/02 08:57:35;;;;;;;1.77;1.63;;;4.70;99.90;;;-141.84;66.20;19216.38;5069701;28;20258;-63
2023/04/02 09:00:22;;;;;;;4.17;1.90;;;4.60;99.90;;;-141.84;66.09;19234.66;5071641;28;20666;-65
2023/04/02 09:02:57;;;;;;;2.43;1.50;;;4.70;99.90;;;-141.84;65.85;19244.81;5089839;28;20238;-65
2023/04/02 09:05:31;;;;;;;2.60;1.47;;;4.70;99.90;;;-141.84;65.88;19216.38;5089748;28;20772;-64
2023/04/02 09:08:05;;;;;;;3.33;1.90;;;4.60;99.90;;;-141.84;65.57;19206.22;5089271;28;20192;-64
2023/04/02 09:10:42;;;;;;;2.00;1.83;;;4.60;99.90;;;-141.84;65.42;19220.44;5088964;28;20209;-66
2023/04/02 09:13:22;;;;;;;2.77;1.83;;;4.50;99.90;;;-141.84;64.59;19204.19;5089401;28;20228;-65
2023/04/02 09:15:56;;;;;;;1.97;1.83;;;4.70;99.90;;;-141.84;64.72;19230.59;5089659;28;20217;-65
2023/04/02 09:18:24;;;;;;;2.30;1.70;;;4.70;99.90;;;-141.84;63.51;19257.00;5072959;28;20691;-64
2023/04/02 09:20:53;;;;;;;2.77;1.77;;;4.90;99.90;;;-141.84;63.97;19236.69;5068856;28;20247;-64
2023/04/02 09:23:27;;;;;;;2.17;1.60;;;4.90;99.90;;;-141.84;64.27;19257.00;5068586;28;20609;-65
2023/04/02 09:25:55;;;;;;;1.90;1.67;;;4.90;99.90;;;-141.84;64.08;19265.13;5069893;28;20632;-65
2023/04/02 09:28:31;;;;;;;2.57;2.17;;;5.00;99.90;;;-141.84;64.66;19261.06;5049556;28;20246;-65
2023/04/02 09:31:19;;;;;;;3.60;1.90;;;5.00;99.90;;;-141.84;64.20;19261.06;5061495;28;20775;-65
2023/04/02 09:33:50;;;;;;;2.10;1.90;;;5.00;99.90;;;-141.84;64.57;19271.25;5072784;28;20246;-64
2023/04/02 09:36:33;;;;;;;2.87;2.00;;;4.90;99.90;;;-141.84;65.18;19248.88;5062186;28;20253;-66
2023/04/02 09:39:08;;;;;;;3.77;2.10;;;4.90;99.90;;;-141.84;64.62;19287.50;5053266;28;20633;-66
2023/04/02 09:41:37;;;;;;;3.40;2.40;;;5.00;99.90;;;-141.84;65.77;19254.97;5061872;28;20231;-65
2023/04/02 09:44:22;;;;;;;4.30;2.30;;;5.10;99.90;;;-141.84;64.06;19307.81;5066955;28;20219;-65
2023/04/02 09:46:55;;;;;;;2.10;1.90;;;5.20;99.90;;;-141.84;64.15;19257.00;5072173;28;20216;-65
2023/04/02 09:49:27;;;;;;;3.07;2.40;;;5.30;99.90;;;-141.84;64.85;19285.47;5061020;28;20232;-65
2023/04/02 09:52:21;;;;;;;6.33;3.00;;;5.40;99.90;;;-141.84;63.07;19317.97;5062972;28;20224;-64
2023/04/02 09:55:20;;;;;;;3.50;2.10;;;5.60;99.90;;;-141.84;63.71;19322.03;5068263;28;20770;-65
2023/04/02 09:57:50;;;;;;;5.80;3.87;;;5.60;99.90;;;-141.84;63.12;19324.06;5068617;28;20312;-65
2023/04/02 10:00:22;;;;;;;5.77;3.40;;;5.70;99.90;;;-141.84;62.17;19334.22;5064001;28;20224;-64
2023/04/02 10:03:05;;;;;;;5.10;3.20;;;5.70;99.90;;;-141.84;62.36;19332.19;5065156;28;20228;-64
2023/04/02 10:05:35;;;;;;;3.67;2.33;;;5.70;99.90;;;-141.84;62.84;19299.69;5072663;28;20227;-65
2023/04/02 10:08:20;;;;;;;3.63;2.47;;;5.60;99.90;;;-141.84;63.16;19285.47;5072519;28;20655;-63
2023/04/02 10:10:54;;;;;;;3.33;2.53;;;5.50;99.90;;;-141.84;62.70;19287.50;5073302;28;20184;-64
2023/04/02 10:13:29;;;;;;;2.50;2.23;;;5.50;99.90;;;-141.84;62.81;19293.59;5072422;28;20232;-64
2023/04/02 10:16:04;;;;;;;2.63;2.30;;;5.60;99.90;;;-141.84;63.07;19271.25;5071864;28;20227;-64
2023/04/02 10:18:46;;;;;;;4.00;2.30;;;5.40;99.90;;;-141.84;62.34;19315.94;5054652;28;20652;-64
2023/04/02 10:21:20;;;;;;;2.87;2.20;;;5.50;99.90;;;-141.84;62.15;19315.94;5072174;28;20710;-65
2023/04/02 10:23:48;;;;;;;3.80;2.30;;;5.60;99.90;;;-141.84;61.46;19358.63;5071807;28;20236;-65
2023/04/02 10:26:57;;;;;;;4.17;2.23;;;5.70;99.90;;;-141.84;61.92;19362.69;5072441;28;20223;-64
2023/04/02 10:30:02;;;;;;;4.77;2.40;;;5.80;99.90;;;-141.84;60.58;19366.75;5072217;28;20231;-64
2023/04/02 10:32:40;;;;;;;3.03;2.53;;;6.00;99.90;;;-141.84;61.44;19360.66;5050059;28;20225;-64
2023/04/02 10:35:23;;;;;;;3.17;2.30;;;5.90;99.90;;;-141.84;61.69;19334.22;5052112;28;20189;-64
2023/04/02 10:38:31;;;;;;;2.40;2.20;;;5.80;99.90;;;-141.84;61.48;19350.50;5068553;28;20205;-66
2023/04/02 10:41:07;;;;;;;4.13;2.53;;;5.80;99.90;;;-141.84;60.96;19334.22;5028511;28;20232;-65
2023/04/02 10:44:18;;;;;;;10.27;5.30;;;5.80;99.90;;;-141.84;60.28;19360.66;5072017;28;20192;-65
2023/04/02 10:47:04;;;;;;;4.33;2.20;;;5.90;99.90;;;-141.84;60.44;19342.34;5072016;28;20295;-64
2023/04/02 10:49:42;;;;;;;9.03;3.80;;;5.90;99.90;;;-141.84;60.16;19354.56;5071681;28;20235;-66